Time;durP1;ratioP1;P1;durP2;ratioP2;P2;SDS_P1;SDS_P2;PMS_P1;PMS_P2;Temp;Humidity;BMP_temperature;BMP_pressure;BME280_temperature;BME280_humidity;BME280_pressure;Samples;Min_cycle;Max_cycle;Signal;HPM_P1;HPM_P2
2021/10/24 00:00:20;;;;;;;23.33;19.27;;;9.50;99.90;;;;;;5027564;28;20213;-82
2021/10/24 00:02:46;;;;;;;23.53;19.20;;;9.50;99.90;;;;;;5016599;28;20267;-81
2021/10/24 00:05:14;;;;;;;27.73;19.00;;;9.50;99.90;;;;;;5008438;28;20222;-82
2021/10/24 00:07:41;;;;;;;21.00;17.87;;;9.40;99.90;;;;;;5007038;28;20207;-83
2021/10/24 00:10:09;;;;;;;22.10;18.37;;;9.40;99.90;;;;;;4989799;28;20258;-82
2021/10/24 00:12:37;;;;;;;22.33;19.30;;;9.30;99.90;;;;;;4988551;28;20719;-80
2021/10/24 00:15:05;;;;;;;22.97;18.13;;;9.30;99.90;;;;;;4988209;28;20288;-81
2021/10/24 00:17:31;;;;;;;24.33;17.57;;;9.30;99.90;;;;;;4988383;28;20207;-80
2021/10/24 00:19:58;;;;;;;21.33;17.27;;;9.30;99.90;;;;;;4988443;28;20219;-82
2021/10/24 00:22:25;;;;;;;26.80;19.57;;;9.30;99.90;;;;;;4987649;28;20204;-82
2021/10/24 00:24:52;;;;;;;21.20;18.80;;;9.20;99.90;;;;;;4989354;28;20215;-81
2021/10/24 00:27:18;;;;;;;20.60;17.60;;;9.20;99.90;;;;;;4988160;28;20204;-80
2021/10/24 00:29:47;;;;;;;26.73;20.23;;;9.20;99.90;;;;;;5003822;28;20211;-81
2021/10/24 00:32:13;;;;;;;25.17;19.13;;;9.20;99.90;;;;;;5007493;28;20227;-82
2021/10/24 00:34:40;;;;;;;24.13;19.00;;;9.20;99.90;;;;;;5007089;28;20203;-83
2021/10/24 00:37:07;;;;;;;25.50;18.37;;;9.20;99.90;;;;;;4988061;28;20262;-81
2021/10/24 00:39:34;;;;;;;26.03;19.23;;;9.20;99.90;;;;;;4988342;28;20207;-82
2021/10/24 00:42:01;;;;;;;25.17;18.70;;;9.20;99.90;;;;;;4987804;28;20227;-81
2021/10/24 00:44:32;;;;;;;28.47;20.60;;;9.20;99.90;;;;;;4988285;28;20215;-81
2021/10/24 00:47:02;;;;;;;22.07;18.20;;;9.20;99.90;;;;;;4987275;28;20208;-82
2021/10/24 00:49:29;;;;;;;21.30;18.40;;;9.20;99.90;;;;;;4987094;28;20596;-81
2021/10/24 00:51:56;;;;;;;25.50;19.50;;;9.20;99.90;;;;;;4987837;28;20239;-79
2021/10/24 00:54:24;;;;;;;26.87;19.00;;;9.20;99.90;;;;;;4991628;28;20210;-80
2021/10/24 00:56:53;;;;;;;23.60;19.23;;;9.20;99.90;;;;;;5006852;28;20483;-80
2021/10/24 00:59:20;;;;;;;26.23;20.00;;;9.20;99.90;;;;;;5007165;28;20207;-81
2021/10/24 01:01:47;;;;;;;23.37;18.37;;;9.20;99.90;;;;;;5007625;28;20238;-82
2021/10/24 01:04:16;;;;;;;23.63;18.53;;;9.20;99.90;;;;;;5007491;28;20207;-83
2021/10/24 01:06:45;;;;;;;21.20;19.00;;;9.20;99.90;;;;;;5006729;28;20239;-81
2021/10/24 01:09:14;;;;;;;20.50;18.33;;;9.30;99.90;;;;;;4987285;28;20200;-81
2021/10/24 01:11:42;;;;;;;21.97;18.03;;;9.20;99.90;;;;;;4986842;28;20257;-82
2021/10/24 01:14:08;;;;;;;27.67;19.13;;;9.20;99.90;;;;;;4987294;28;20286;-83
2021/10/24 01:16:36;;;;;;;22.37;18.00;;;9.20;99.90;;;;;;5003245;28;20218;-82
2021/10/24 01:19:04;;;;;;;25.00;19.10;;;9.20;99.90;;;;;;5007971;28;20291;-82
2021/10/24 01:21:33;;;;;;;25.50;19.20;;;9.20;99.90;;;;;;5006555;28;20199;-81
2021/10/24 01:24:00;;;;;;;24.00;19.93;;;9.20;99.90;;;;;;5007273;28;20203;-82
2021/10/24 01:26:28;;;;;;;21.00;17.77;;;9.20;99.90;;;;;;5005590;28;20196;-82
2021/10/24 01:28:57;;;;;;;24.93;18.57;;;9.20;99.90;;;;;;5006505;28;20295;-83
2021/10/24 01:31:24;;;;;;;22.33;19.37;;;9.20;99.90;;;;;;5005506;28;20807;-82
2021/10/24 01:33:51;;;;;;;23.77;18.90;;;9.20;99.90;;;;;;5004814;28;20206;-82
2021/10/24 01:36:18;;;;;;;24.87;18.63;;;9.20;99.90;;;;;;4986823;28;20597;-81
2021/10/24 01:38:49;;;;;;;24.37;19.40;;;9.20;99.90;;;;;;4986264;28;20213;-83
2021/10/24 01:41:16;;;;;;;24.80;20.53;;;9.20;99.90;;;;;;4987295;28;20200;-82
2021/10/24 01:43:44;;;;;;;21.83;18.17;;;9.30;99.90;;;;;;4998368;28;20820;-82
2021/10/24 01:46:10;;;;;;;21.53;18.37;;;9.30;99.90;;;;;;5005874;28;20207;-81
2021/10/24 01:48:37;;;;;;;23.97;17.87;;;9.30;99.90;;;;;;5005788;28;20218;-80
2021/10/24 01:51:04;;;;;;;25.53;17.93;;;9.30;99.90;;;;;;5006633;28;20210;-82
2021/10/24 01:53:33;;;;;;;20.07;17.07;;;9.30;99.90;;;;;;5005341;28;20234;-81
2021/10/24 01:56:02;;;;;;;23.00;18.63;;;9.30;99.90;;;;;;5006998;28;20199;-79
2021/10/24 01:58:29;;;;;;;24.63;18.23;;;9.20;99.90;;;;;;5005477;28;20207;-82
2021/10/24 02:00:56;;;;;;;22.93;17.37;;;9.30;99.90;;;;;;5004752;28;20211;-81
2021/10/24 02:03:23;;;;;;;26.73;17.97;;;9.30;99.90;;;;;;4991721;28;20233;-80
2021/10/24 02:05:50;;;;;;;23.17;16.97;;;9.20;99.90;;;;;;4986599;28;20481;-81
2021/10/24 02:08:17;;;;;;;21.83;16.70;;;9.20;99.90;;;;;;4986904;28;20297;-82
2021/10/24 02:10:45;;;;;;;21.87;18.33;;;9.20;99.90;;;;;;4990325;28;20313;-81
2021/10/24 02:13:14;;;;;;;22.47;18.00;;;9.20;99.90;;;;;;5006251;28;20233;-82
2021/10/24 02:15:41;;;;;;;19.33;17.10;;;9.20;99.90;;;;;;5008808;28;20207;-82
2021/10/24 02:18:10;;;;;;;20.17;17.20;;;9.20;99.90;;;;;;5009362;28;20195;-83
2021/10/24 02:20:37;;;;;;;19.50;16.97;;;9.10;99.90;;;;;;4999451;28;20274;-81
2021/10/24 02:23:06;;;;;;;26.50;17.13;;;9.10;99.90;;;;;;4991062;28;20203;-81
2021/10/24 02:25:33;;;;;;;22.53;16.83;;;9.00;99.90;;;;;;4990795;28;20218;-81
2021/10/24 02:28:01;;;;;;;22.80;16.97;;;9.00;99.90;;;;;;4990067;28;20203;-81
2021/10/24 02:30:29;;;;;;;20.57;17.40;;;9.00;99.90;;;;;;5003043;28;20515;-80
2021/10/24 02:32:56;;;;;;;21.90;16.83;;;8.90;99.90;;;;;;5009973;28;20250;-82
2021/10/24 02:35:25;;;;;;;23.30;17.00;;;8.80;99.90;;;;;;5008317;28;20191;-82
2021/10/24 02:37:53;;;;;;;20.13;16.67;;;8.80;99.90;;;;;;5008642;28;20265;-82
2021/10/24 02:40:20;;;;;;;23.77;18.50;;;8.80;99.90;;;;;;5010000;28;20207;-82
2021/10/24 02:42:48;;;;;;;25.30;18.43;;;8.80;99.90;;;;;;5008921;28;20700;-82
2021/10/24 02:45:15;;;;;;;22.50;17.57;;;8.70;99.90;;;;;;5009544;28;20214;-80
2021/10/24 02:47:44;;;;;;;24.97;17.23;;;8.70;99.90;;;;;;5008982;28;20671;-82
2021/10/24 02:50:11;;;;;;;22.77;17.53;;;8.60;99.90;;;;;;5008940;28;20206;-82
2021/10/24 02:52:38;;;;;;;20.63;16.80;;;8.60;99.90;;;;;;5008789;28;20227;-81
2021/10/24 02:55:07;;;;;;;24.27;17.33;;;8.60;99.90;;;;;;5009918;28;20191;-83
2021/10/24 02:57:34;;;;;;;18.80;16.43;;;8.60;99.90;;;;;;5008790;28;20199;-83
2021/10/24 03:00:01;;;;;;;20.33;16.57;;;8.50;99.90;;;;;;5009401;28;20206;-79
2021/10/24 03:02:28;;;;;;;21.77;15.83;;;8.50;99.90;;;;;;5008623;28;20241;-81
2021/10/24 03:04:56;;;;;;;22.50;16.30;;;8.50;99.90;;;;;;5009435;28;20215;-80
2021/10/24 03:07:23;;;;;;;22.30;17.63;;;8.50;99.90;;;;;;5009050;28;20218;-81
2021/10/24 03:09:50;;;;;;;19.60;17.50;;;8.40;99.90;;;;;;5008432;28;20215;-80
2021/10/24 03:12:17;;;;;;;25.10;17.20;;;8.40;99.90;;;;;;5008838;28;20247;-80
2021/10/24 03:14:44;;;;;;;23.27;18.07;;;8.40;99.90;;;;;;5008577;28;20199;-81
2021/10/24 03:17:10;;;;;;;24.40;18.13;;;8.30;99.90;;;;;;4988930;28;20219;-80
2021/10/24 03:19:37;;;;;;;21.53;17.03;;;8.30;99.90;;;;;;4989489;28;20211;-79
2021/10/24 03:22:06;;;;;;;21.83;18.43;;;8.30;99.90;;;;;;4989485;28;20250;-81
2021/10/24 03:24:32;;;;;;;22.60;18.00;;;8.30;99.90;;;;;;4989138;28;20219;-81
2021/10/24 03:27:00;;;;;;;22.67;18.33;;;8.30;99.90;;;;;;4989838;28;20207;-81
2021/10/24 03:29:27;;;;;;;23.83;18.03;;;8.20;99.90;;;;;;4989189;28;20248;-83
2021/10/24 03:31:53;;;;;;;21.10;18.73;;;8.20;99.90;;;;;;4988800;28;20215;-82
2021/10/24 03:34:20;;;;;;;23.70;18.97;;;8.20;99.90;;;;;;4990432;28;20215;-81
2021/10/24 03:36:47;;;;;;;25.10;19.13;;;8.20;99.90;;;;;;4989574;28;20227;-81
2021/10/24 03:39:16;;;;;;;20.83;18.13;;;8.20;99.90;;;;;;4989597;28;20207;-81
2021/10/24 03:41:43;;;;;;;25.73;20.17;;;8.20;99.90;;;;;;4989611;28;20212;-79
2021/10/24 03:44:10;;;;;;;26.50;19.73;;;8.10;99.90;;;;;;4989210;28;20211;-81
2021/10/24 03:46:37;;;;;;;29.53;18.83;;;8.10;99.90;;;;;;4988673;28;20649;-83
2021/10/24 03:49:04;;;;;;;27.07;20.00;;;8.10;99.90;;;;;;5008129;28;20210;-82
2021/10/24 03:51:34;;;;;;;24.03;21.13;;;8.00;99.90;;;;;;5007129;28;20202;-80
2021/10/24 03:54:00;;;;;;;24.67;20.20;;;8.00;99.90;;;;;;5008217;28;20243;-80
2021/10/24 03:56:28;;;;;;;28.57;20.80;;;8.00;99.90;;;;;;4990990;28;20573;-80
2021/10/24 03:58:55;;;;;;;25.40;20.03;;;8.00;99.90;;;;;;4988035;28;20208;-82
2021/10/24 04:01:22;;;;;;;29.00;20.90;;;8.00;99.90;;;;;;4989343;28;20216;-82
2021/10/24 04:03:49;;;;;;;25.27;19.70;;;7.90;99.90;;;;;;4988527;28;20204;-81
2021/10/24 04:06:16;;;;;;;26.47;20.53;;;7.90;99.90;;;;;;4989267;28;20208;-80
2021/10/24 04:08:43;;;;;;;28.77;20.77;;;7.90;99.90;;;;;;4989380;28;20200;-82
2021/10/24 04:11:10;;;;;;;27.57;20.27;;;7.80;99.90;;;;;;5007562;28;20214;-83
2021/10/24 04:13:38;;;;;;;24.93;20.20;;;7.80;99.90;;;;;;5007292;28;20218;-80
2021/10/24 04:16:05;;;;;;;27.00;19.00;;;7.80;99.90;;;;;;4993582;28;20219;-81
2021/10/24 04:18:32;;;;;;;26.33;20.23;;;7.80;99.90;;;;;;4988100;28;20219;-80
2021/10/24 04:20:58;;;;;;;25.17;19.37;;;7.70;99.90;;;;;;4987199;28;20211;-81
2021/10/24 04:23:25;;;;;;;22.53;19.40;;;7.70;99.90;;;;;;4988010;28;20212;-82
2021/10/24 04:25:53;;;;;;;23.43;19.83;;;7.70;99.90;;;;;;5007670;28;20593;-80
2021/10/24 04:28:21;;;;;;;25.57;19.37;;;7.70;99.90;;;;;;5006817;28;20195;-81
2021/10/24 04:30:49;;;;;;;24.30;19.00;;;7.70;99.90;;;;;;5007689;28;20967;-81
2021/10/24 04:33:16;;;;;;;25.97;20.30;;;7.60;99.90;;;;;;5006133;28;20249;-80
2021/10/24 04:35:43;;;;;;;24.70;19.73;;;7.60;99.90;;;;;;5007115;28;20214;-81
2021/10/24 04:38:10;;;;;;;23.93;18.60;;;7.60;99.90;;;;;;5007898;28;20207;-81
2021/10/24 04:40:36;;;;;;;26.30;19.00;;;7.50;99.90;;;;;;5006690;28;20670;-80
2021/10/24 04:43:04;;;;;;;24.77;19.33;;;7.50;99.90;;;;;;5007372;28;20223;-81
2021/10/24 04:45:33;;;;;;;23.63;18.63;;;7.50;99.90;;;;;;5007153;28;20199;-81
2021/10/24 04:48:02;;;;;;;26.83;19.37;;;7.40;99.90;;;;;;5007221;28;20229;-81
2021/10/24 04:50:29;;;;;;;23.73;18.57;;;7.40;99.90;;;;;;5006704;28;20203;-80
2021/10/24 04:52:55;;;;;;;25.67;19.40;;;7.40;99.90;;;;;;5007538;28;20229;-79
2021/10/24 04:55:22;;;;;;;26.33;19.17;;;7.40;99.90;;;;;;5006129;28;20218;-82
2021/10/24 04:57:49;;;;;;;24.80;18.57;;;7.30;99.90;;;;;;5008200;28;20214;-83
2021/10/24 05:00:16;;;;;;;25.37;18.97;;;7.30;99.90;;;;;;4997400;28;20207;-81
2021/10/24 05:02:43;;;;;;;28.30;18.40;;;7.30;99.90;;;;;;4999207;28;20231;-80
2021/10/24 05:05:11;;;;;;;24.13;18.00;;;7.30;99.90;;;;;;5007668;28;20199;-80
2021/10/24 05:07:38;;;;;;;24.80;19.60;;;7.20;99.90;;;;;;4999030;28;20211;-80
2021/10/24 05:10:06;;;;;;;22.63;17.80;;;7.20;99.90;;;;;;4988541;28;20294;-83
2021/10/24 05:12:33;;;;;;;23.13;18.50;;;7.20;99.90;;;;;;5006997;28;20230;-82
2021/10/24 05:15:00;;;;;;;24.13;18.23;;;7.20;99.90;;;;;;5007783;28;20207;-82
2021/10/24 05:17:27;;;;;;;22.73;18.57;;;7.10;99.90;;;;;;5005931;28;20192;-81
2021/10/24 05:19:53;;;;;;;24.77;18.50;;;7.10;99.90;;;;;;4988307;28;20879;-81
2021/10/24 05:22:22;;;;;;;21.13;17.90;;;7.10;99.90;;;;;;4986227;28;20215;-84
2021/10/24 05:24:48;;;;;;;22.40;17.47;;;7.10;99.90;;;;;;4988112;28;20203;-82
2021/10/24 05:27:15;;;;;;;24.27;17.73;;;7.00;99.90;;;;;;4988112;28;20200;-80
2021/10/24 05:29:43;;;;;;;22.70;18.30;;;7.00;99.90;;;;;;4987777;28;20501;-81
2021/10/24 05:32:09;;;;;;;25.03;18.63;;;7.00;99.90;;;;;;4987261;28;20223;-80
2021/10/24 05:34:36;;;;;;;22.50;18.13;;;7.00;99.90;;;;;;4998053;28;20235;-80
2021/10/24 05:37:03;;;;;;;22.50;18.07;;;6.90;99.90;;;;;;5007397;28;20608;-81
2021/10/24 05:39:31;;;;;;;24.60;18.30;;;6.90;99.90;;;;;;5005521;28;20206;-80
2021/10/24 05:41:58;;;;;;;23.10;17.87;;;7.00;99.90;;;;;;5001607;28;20593;-81
2021/10/24 05:44:25;;;;;;;23.53;17.47;;;7.00;99.90;;;;;;4986350;28;20200;-81
2021/10/24 05:46:53;;;;;;;22.13;17.80;;;6.90;99.90;;;;;;4987570;28;20218;-82
2021/10/24 05:49:20;;;;;;;22.53;18.53;;;6.90;99.90;;;;;;4986712;28;20844;-80
2021/10/24 05:51:47;;;;;;;23.30;17.03;;;6.90;99.90;;;;;;4986772;28;20196;-83
2021/10/24 05:54:14;;;;;;;22.47;18.23;;;6.90;99.90;;;;;;4993910;28;20230;-81
2021/10/24 05:56:42;;;;;;;19.83;17.07;;;6.90;99.90;;;;;;5006716;28;20199;-81
2021/10/24 05:59:09;;;;;;;20.13;17.53;;;6.90;99.90;;;;;;5005787;28;20218;-81
2021/10/24 06:01:36;;;;;;;25.17;18.70;;;6.90;99.90;;;;;;5006154;28;20214;-82
2021/10/24 06:04:02;;;;;;;20.53;17.30;;;6.80;99.90;;;;;;5006434;28;20210;-82
2021/10/24 06:06:29;;;;;;;23.30;18.00;;;6.80;99.90;;;;;;5005787;28;20195;-80
2021/10/24 06:08:58;;;;;;;25.90;17.17;;;6.80;99.90;;;;;;5006407;28;20218;-81
2021/10/24 06:11:28;;;;;;;21.87;18.13;;;6.80;99.90;;;;;;5006177;28;20567;-80
2021/10/24 06:13:56;;;;;;;22.90;16.60;;;6.80;99.90;;;;;;5005706;28;20226;-82
2021/10/24 06:16:23;;;;;;;24.17;18.43;;;6.80;99.90;;;;;;5005889;28;20199;-80
2021/10/24 06:18:50;;;;;;;23.57;18.57;;;6.80;99.90;;;;;;5005759;28;20277;-81
2021/10/24 06:21:17;;;;;;;23.47;17.93;;;6.80;99.90;;;;;;5005431;28;20196;-81
2021/10/24 06:23:44;;;;;;;21.60;17.27;;;6.80;99.90;;;;;;5005628;28;20200;-81
2021/10/24 06:26:11;;;;;;;19.80;17.13;;;6.80;99.90;;;;;;5006681;28;20222;-80
2021/10/24 06:28:38;;;;;;;24.33;19.27;;;6.80;99.90;;;;;;5005999;28;20218;-80
2021/10/24 06:31:06;;;;;;;22.20;17.83;;;6.80;99.90;;;;;;5001648;28;20656;-80
2021/10/24 06:33:33;;;;;;;19.00;16.57;;;6.80;99.90;;;;;;4986760;28;20224;-79
2021/10/24 06:36:00;;;;;;;23.47;18.77;;;6.80;99.90;;;;;;4986333;28;20192;-79
2021/10/24 06:38:27;;;;;;;24.30;18.10;;;6.70;99.90;;;;;;4987005;28;20204;-81
2021/10/24 06:40:54;;;;;;;23.03;18.43;;;6.70;99.90;;;;;;4996470;28;20207;-81
2021/10/24 06:43:20;;;;;;;22.97;17.67;;;6.70;99.90;;;;;;5006204;28;20199;-80
2021/10/24 06:45:47;;;;;;;25.33;18.13;;;6.80;99.90;;;;;;4992985;28;20219;-83
2021/10/24 06:48:16;;;;;;;25.53;18.47;;;6.70;99.90;;;;;;5005939;28;20196;-81
2021/10/24 06:50:42;;;;;;;21.90;17.30;;;6.70;99.90;;;;;;5005814;28;20222;-83
2021/10/24 06:53:09;;;;;;;25.43;17.83;;;6.70;99.90;;;;;;5005141;28;20234;-80
2021/10/24 06:55:36;;;;;;;20.70;17.43;;;6.70;99.90;;;;;;4985844;28;20611;-81
2021/10/24 06:58:04;;;;;;;23.03;17.33;;;6.80;99.90;;;;;;4968694;28;20578;-79
2021/10/24 07:00:31;;;;;;;19.47;16.90;;;6.80;99.90;;;;;;4989242;28;20295;-80
2021/10/24 07:02:58;;;;;;;23.30;17.73;;;6.80;99.90;;;;;;4990037;28;20845;-79
2021/10/24 07:05:27;;;;;;;20.13;17.83;;;6.80;99.90;;;;;;4989466;28;20219;-78
2021/10/24 07:07:54;;;;;;;28.00;18.77;;;6.80;99.90;;;;;;4989690;28;20243;-80
2021/10/24 07:10:21;;;;;;;25.73;18.20;;;6.80;99.90;;;;;;4996751;28;20225;-80
2021/10/24 07:13:28;;;;;;;27.80;18.83;;;6.80;99.90;;;;;;4968454;28;20883;-82
2021/10/24 07:15:55;;;;;;;22.40;17.50;;;6.80;99.90;;;;;;5009641;28;20626;-80
2021/10/24 07:18:22;;;;;;;23.77;17.60;;;6.80;99.90;;;;;;5000077;28;20551;-81
2021/10/24 07:20:51;;;;;;;22.53;17.37;;;6.90;99.90;;;;;;5010479;28;20211;-82
2021/10/24 07:23:17;;;;;;;25.10;18.13;;;6.90;99.90;;;;;;5009770;28;20203;-81
2021/10/24 07:25:44;;;;;;;23.87;17.77;;;6.90;99.90;;;;;;5010820;28;20671;-80
2021/10/24 07:28:11;;;;;;;24.90;17.17;;;6.90;99.90;;;;;;4991650;28;20207;-83
2021/10/24 07:30:38;;;;;;;23.93;17.97;;;6.90;99.90;;;;;;4988536;28;20243;-84
2021/10/24 07:33:05;;;;;;;22.97;17.63;;;7.00;99.90;;;;;;4990277;28;20287;-82
2021/10/24 07:35:32;;;;;;;19.97;16.53;;;7.00;99.90;;;;;;4990560;28;20203;-82
2021/10/24 07:38:04;;;;;;;23.43;16.30;;;7.00;99.90;;;;;;4990873;28;20218;-82
2021/10/24 07:40:32;;;;;;;21.77;17.47;;;7.00;99.90;;;;;;4990306;28;20208;-85
2021/10/24 07:42:59;;;;;;;21.60;16.93;;;7.10;99.90;;;;;;5007097;28;20211;-81
2021/10/24 07:45:26;;;;;;;23.27;17.07;;;7.10;99.90;;;;;;5010100;28;20195;-81
2021/10/24 07:47:53;;;;;;;21.80;17.30;;;7.10;99.90;;;;;;5010325;28;20214;-81
2021/10/24 07:50:20;;;;;;;22.13;17.03;;;7.20;99.90;;;;;;5001363;28;20204;-81
2021/10/24 07:52:47;;;;;;;24.70;17.17;;;7.20;99.90;;;;;;4990528;28;20203;-80
2021/10/24 07:55:15;;;;;;;17.97;16.07;;;7.20;99.90;;;;;;4990717;28;20227;-79
2021/10/24 07:57:42;;;;;;;21.77;16.97;;;7.30;99.90;;;;;;4991067;28;20302;-82
2021/10/24 08:00:10;;;;;;;17.50;15.13;;;7.30;99.90;;;;;;4990973;28;20212;-81
2021/10/24 08:02:36;;;;;;;18.47;15.23;;;7.40;99.90;;;;;;4991003;28;20420;-82
2021/10/24 08:05:04;;;;;;;21.47;15.97;;;7.40;99.90;;;;;;4990257;28;20600;-84
2021/10/24 08:07:35;;;;;;;17.10;13.90;;;7.40;99.90;;;;;;4989448;28;20204;-81
2021/10/24 08:10:01;;;;;;;21.40;15.00;;;7.50;99.90;;;;;;4991046;28;20200;-82
2021/10/24 08:12:30;;;;;;;19.40;14.47;;;7.50;99.90;;;;;;4999218;28;20215;-83
2021/10/24 08:14:58;;;;;;;20.00;14.57;;;7.60;99.90;;;;;;5010168;28;20231;-82
2021/10/24 08:17:25;;;;;;;17.43;14.40;;;7.60;99.90;;;;;;4999025;28;20536;-81
2021/10/24 08:19:52;;;;;;;16.70;14.00;;;7.70;99.90;;;;;;4990550;28;20206;-82
2021/10/24 08:22:19;;;;;;;18.03;14.73;;;7.70;99.90;;;;;;4998172;28;20207;-81
2021/10/24 08:24:46;;;;;;;16.43;12.50;;;7.80;99.90;;;;;;5011087;28;20200;-81
2021/10/24 08:27:13;;;;;;;18.03;13.40;;;7.80;99.90;;;;;;5010917;28;20210;-83
2021/10/24 08:29:41;;;;;;;22.10;13.73;;;7.90;99.90;;;;;;4996073;28;20208;-82
2021/10/24 08:32:10;;;;;;;15.37;12.97;;;7.90;99.90;;;;;;4992688;28;20231;-81
2021/10/24 08:34:38;;;;;;;16.80;13.37;;;8.00;99.90;;;;;;4990616;28;20238;-82
2021/10/24 08:37:06;;;;;;;17.70;12.47;;;8.00;99.90;;;;;;4994522;28;20203;-81
2021/10/24 08:39:33;;;;;;;18.47;12.40;;;8.10;99.90;;;;;;5002279;28;20215;-81
2021/10/24 08:42:00;;;;;;;15.07;12.23;;;8.10;99.90;;;;;;4993667;28;20211;-83
2021/10/24 08:44:27;;;;;;;14.40;11.63;;;8.20;99.90;;;;;;4993339;28;20196;-81
2021/10/24 08:46:55;;;;;;;14.17;12.07;;;8.20;99.90;;;;;;5003092;28;20208;-81
2021/10/24 08:49:22;;;;;;;16.17;11.90;;;8.30;99.90;;;;;;5006602;28;20199;-84
2021/10/24 08:51:50;;;;;;;16.67;11.90;;;8.30;99.90;;;;;;5007495;28;20214;-81
2021/10/24 08:54:23;;;;;;;16.47;12.33;;;8.30;99.90;;;;;;5007337;28;20227;-80
2021/10/24 08:56:50;;;;;;;16.00;10.50;;;8.40;99.90;;;;;;5007720;28;20833;-81
2021/10/24 08:59:17;;;;;;;13.17;10.60;;;8.50;99.90;;;;;;5006808;28;20612;-82
2021/10/24 09:01:51;;;;;;;15.20;10.93;;;8.50;99.90;;;;;;5006009;28;20524;-82
2021/10/24 09:04:20;;;;;;;14.30;11.30;;;8.60;99.90;;;;;;5007026;28;20216;-81
2021/10/24 09:06:55;;;;;;;15.90;10.17;;;8.60;99.90;;;;;;5006099;28;20211;-83
2021/10/24 09:09:25;;;;;;;15.17;10.33;;;8.70;99.90;;;;;;5006279;28;20694;-82
2021/10/24 09:11:55;;;;;;;12.93;9.40;;;8.80;99.90;;;;;;5006153;28;20211;-82
2021/10/24 09:14:39;;;;;;;12.43;10.00;;;8.80;99.90;;;;;;5002820;28;20227;-81
2021/10/24 09:17:06;;;;;;;11.73;9.20;;;8.90;99.90;;;;;;5002542;28;20199;-80
2021/10/24 09:19:37;;;;;;;13.50;9.90;;;9.00;99.90;;;;;;5002933;28;20553;-78
2021/10/24 09:22:15;;;;;;;10.67;9.57;;;9.00;99.90;;;;;;5005052;28;20225;-80
2021/10/24 09:25:03;;;;;;;11.47;10.13;;;9.10;99.90;;;;;;5001853;28;20514;-80
2021/10/24 09:27:31;;;;;;;12.97;8.67;;;9.20;99.90;;;;;;5003047;28;20238;-80
2021/10/24 09:30:06;;;;;;;11.57;8.73;;;9.30;99.90;;;;;;5004820;28;20214;-82
2021/10/24 09:32:46;;;;;;;11.33;9.17;;;9.40;99.90;;;;;;5005139;28;20296;-82
2021/10/24 09:35:16;;;;;;;11.23;7.80;;;9.50;99.90;;;;;;5005786;28;20250;-81
2021/10/24 09:37:47;;;;;;;9.73;8.60;;;9.60;99.90;;;;;;5005038;28;20214;-82
2021/10/24 09:40:15;;;;;;;9.50;7.90;;;9.70;99.90;;;;;;5005574;28;20266;-81
2021/10/24 09:42:42;;;;;;;10.10;8.33;;;9.80;99.90;;;;;;5005633;28;20935;-82
2021/10/24 09:45:12;;;;;;;11.37;8.77;;;9.90;99.90;;;;;;5003807;28;20511;-80
2021/10/24 09:47:44;;;;;;;9.87;8.30;;;9.90;99.90;;;;;;5005155;28;20225;-82
2021/10/24 09:50:34;;;;;;;11.87;7.63;;;10.00;99.90;;;;;;5005155;28;20214;-83
2021/10/24 09:53:16;;;;;;;9.57;7.23;;;10.10;99.90;;;;;;5005465;28;20227;-81
2021/10/24 09:55:44;;;;;;;8.67;7.50;;;10.30;99.90;;;;;;5005803;28;20666;-80
2021/10/24 09:58:13;;;;;;;11.30;8.00;;;10.40;99.90;;;;;;5003399;28;20698;-81
2021/10/24 10:00:41;;;;;;;7.70;6.90;;;10.50;99.90;;;;;;5003944;28;20308;-79
2021/10/24 10:03:09;;;;;;;8.00;6.63;;;10.60;99.90;;;;;;5002770;28;20247;-80
2021/10/24 10:05:39;;;;;;;9.50;6.90;;;10.70;99.90;;;;;;5003458;28;20221;-80
2021/10/24 10:08:07;;;;;;;9.90;7.97;;;10.90;99.90;;;;;;5004408;28;20416;-83
2021/10/24 10:10:38;;;;;;;8.33;7.40;;;11.00;99.90;;;;;;5003888;28;20218;-79
2021/10/24 10:13:11;;;;;;;7.77;6.83;;;11.10;99.90;;;;;;5003026;28;20269;-79
2021/10/24 10:15:40;;;;;;;8.43;6.97;;;11.20;99.90;;;;;;5004170;28;20262;-79
2021/10/24 10:18:07;;;;;;;11.30;7.93;;;11.30;99.90;;;;;;5004776;28;20203;-80
2021/10/24 10:20:35;;;;;;;10.80;7.63;;;11.40;99.90;;;;;;5004568;28;20219;-78
2021/10/24 10:23:05;;;;;;;8.47;6.83;;;11.40;99.90;;;;;;5006677;28;20215;-79
2021/10/24 10:25:34;;;;;;;11.47;6.73;;;11.50;99.90;;;;;;5004787;28;20207;-81
2021/10/24 10:28:01;;;;;;;9.60;6.50;;;11.60;99.90;;;;;;5005824;28;20214;-78
2021/10/24 10:30:39;;;;;;;8.17;6.67;;;11.50;99.90;;;;;;4999870;28;20215;-80
2021/10/24 10:33:30;;;;;;;8.10;6.97;;;11.60;99.90;;;;;;4991181;28;20413;-79
2021/10/24 10:35:58;;;;;;;8.03;6.07;;;11.60;99.90;;;;;;4991010;28;20212;-82
2021/10/24 10:38:33;;;;;;;8.23;6.77;;;11.70;99.90;;;;;;4991270;28;20199;-83
2021/10/24 10:41:00;;;;;;;10.43;6.00;;;11.80;99.90;;;;;;4990785;28;20204;-82
2021/10/24 10:43:27;;;;;;;11.20;6.20;;;11.80;99.90;;;;;;4990890;28;20214;-80
2021/10/24 10:45:56;;;;;;;11.23;6.80;;;11.80;99.90;;;;;;4997360;28;20215;-81
2021/10/24 10:48:39;;;;;;;9.37;5.97;;;11.90;99.90;;;;;;5010768;28;20208;-82
2021/10/24 10:51:19;;;;;;;9.13;6.60;;;12.00;99.90;;;;;;5011369;28;20191;-81
2021/10/24 10:54:09;;;;;;;8.67;5.70;;;12.00;99.90;;;;;;5008385;28;20572;-82
2021/10/24 10:56:45;;;;;;;6.40;5.83;;;12.10;99.90;;;;;;5005069;28;20860;-82
2021/10/24 10:59:30;;;;;;;7.73;6.10;;;12.20;99.90;;;;;;5006701;28;20215;-81
2021/10/24 11:02:28;;;;;;;8.93;6.50;;;12.20;99.90;;;;;;5007015;28;20239;-81
2021/10/24 11:04:58;;;;;;;11.83;6.37;;;12.30;99.90;;;;;;4992319;28;20299;-84
2021/10/24 11:07:35;;;;;;;7.97;6.50;;;12.40;99.90;;;;;;5007790;28;20207;-80
2021/10/24 11:10:04;;;;;;;10.60;6.07;;;12.40;99.90;;;;;;5007125;28;20203;-82
2021/10/24 11:12:39;;;;;;;7.93;5.57;;;12.50;99.90;;;;;;5007858;28;20595;-81
2021/10/24 11:15:17;;;;;;;8.40;5.83;;;12.60;99.90;;;;;;4996874;28;20242;-80
2021/10/24 11:17:46;;;;;;;7.17;6.03;;;12.60;99.90;;;;;;4988810;28;20188;-79
2021/10/24 11:20:18;;;;;;;10.07;6.23;;;12.70;99.90;;;;;;4988508;28;20204;-80
2021/10/24 11:22:51;;;;;;;8.30;6.07;;;12.70;99.90;;;;;;4988956;28;20215;-81
2021/10/24 11:25:27;;;;;;;8.67;5.53;;;12.80;99.90;;;;;;5007970;28;20295;-80
2021/10/24 11:27:55;;;;;;;10.27;6.50;;;12.90;99.90;;;;;;5009068;28;20820;-79
2021/10/24 11:30:22;;;;;;;6.67;5.57;;;12.90;99.90;;;;;;5007675;28;20235;-80
2021/10/24 11:32:54;;;;;;;8.33;6.40;;;13.00;99.90;;;;;;5007833;28;20813;-81
2021/10/24 11:35:24;;;;;;;8.67;5.80;;;13.00;99.90;;;;;;4992246;28;20220;-82
2021/10/24 11:37:54;;;;;;;8.33;5.53;;;12.90;99.90;;;;;;4988437;28;20204;-79
2021/10/24 11:40:23;;;;;;;9.13;6.20;;;12.90;99.90;;;;;;4988464;28;20322;-82
2021/10/24 11:43:08;;;;;;;6.87;6.17;;;12.90;99.90;;;;;;4988905;28;20230;-81
2021/10/24 11:45:37;;;;;;;9.30;6.90;;;12.90;99.90;;;;;;4988020;28;20207;-81
2021/10/24 11:48:07;;;;;;;8.73;6.00;;;12.80;99.90;;;;;;4988884;28;20204;-79
2021/10/24 11:50:47;;;;;;;7.37;6.47;;;12.80;99.90;;;;;;4987833;28;20210;-80
2021/10/24 11:53:19;;;;;;;8.80;6.17;;;12.80;99.90;;;;;;4988941;28;20544;-81
2021/10/24 11:55:48;;;;;;;7.07;5.90;;;12.90;99.90;;;;;;4989019;28;20235;-81
2021/10/24 11:58:54;;;;;;;7.53;6.07;;;12.80;99.90;;;;;;4988099;28;20412;-80
2021/10/24 12:01:22;;;;;;;8.37;6.23;;;12.90;99.90;;;;;;4998763;28;20211;-80
2021/10/24 12:03:58;;;;;;;8.27;6.60;;;12.90;99.90;;;;;;4988687;28;20760;-82
2021/10/24 12:06:47;;;;;;;9.03;6.23;;;12.90;99.90;;;;;;4987455;28;20231;-81
2021/10/24 12:09:14;;;;;;;7.17;6.13;;;12.90;99.90;;;;;;4988661;28;20461;-78
2021/10/24 12:11:43;;;;;;;7.93;6.47;;;12.90;99.90;;;;;;4988530;28;20235;-81
2021/10/24 12:14:12;;;;;;;8.83;5.80;;;12.80;99.90;;;;;;4988615;28;20210;-81
2021/10/24 12:16:42;;;;;;;8.10;5.83;;;12.90;99.90;;;;;;4988021;28;20656;-81
2021/10/24 12:19:11;;;;;;;9.00;5.90;;;12.80;99.90;;;;;;4988256;28;20208;-82
2021/10/24 12:21:39;;;;;;;8.10;5.87;;;12.90;99.90;;;;;;4988064;28;20223;-82
2021/10/24 12:24:17;;;;;;;6.83;5.60;;;13.00;99.90;;;;;;4988297;28;20399;-79
2021/10/24 12:26:44;;;;;;;9.10;5.90;;;13.00;99.90;;;;;;4988025;28;20204;-83
2021/10/24 12:29:17;;;;;;;7.30;6.30;;;13.00;99.90;;;;;;4988360;28;20581;-82
2021/10/24 12:31:45;;;;;;;6.97;5.67;;;13.00;99.90;;;;;;4988888;28;20735;-83
2021/10/24 12:34:16;;;;;;;7.70;6.07;;;13.10;99.90;;;;;;4988338;28;20215;-82
2021/10/24 12:36:43;;;;;;;7.63;5.70;;;13.10;99.90;;;;;;4987937;28;20250;-81
2021/10/24 12:39:22;;;;;;;6.93;5.83;;;13.10;99.90;;;;;;4973788;28;20216;-84
2021/10/24 12:41:50;;;;;;;9.77;6.40;;;13.10;99.90;;;;;;4968744;28;20204;-80
2021/10/24 12:44:30;;;;;;;8.90;6.20;;;13.00;99.90;;;;;;4968568;28;20209;-81
2021/10/24 12:46:57;;;;;;;8.07;5.60;;;13.00;99.90;;;;;;4986212;28;20207;-81